createdAt,value
2019-03-31T00:00:15.771Z,77.25
2019-03-31T00:02:48.683Z,77.30
2019-03-31T00:05:20.398Z,77.48
2019-03-31T00:07:51.706Z,77.53
2019-03-31T00:10:23.391Z,77.78
2019-03-31T00:12:54.705Z,77.70
2019-03-31T00:15:25.946Z,77.88
2019-03-31T00:17:57.165Z,78.13
2019-03-31T00:20:28.474Z,78.07
2019-03-31T00:23:00.244Z,78.41
2019-03-31T00:25:31.462Z,78.55
2019-03-31T00:28:04.343Z,78.19
2019-03-31T00:30:35.701Z,78.40
2019-03-31T00:33:07.020Z,78.29
2019-03-31T00:35:38.338Z,78.55
2019-03-31T00:38:09.644Z,78.27
2019-03-31T00:40:40.939Z,78.27
2019-03-31T00:43:12.343Z,78.52
2019-03-31T00:45:43.674Z,78.67
2019-03-31T00:48:15.026Z,78.55
2019-03-31T00:50:46.365Z,78.45
2019-03-31T00:53:17.685Z,78.56
2019-03-31T00:55:48.999Z,78.71
2019-03-31T00:58:20.315Z,78.75
2019-03-31T01:00:53.263Z,78.46
2019-03-31T01:03:26.208Z,78.61
2019-03-31T01:05:57.549Z,78.84
2019-03-31T01:08:29.049Z,78.91
2019-03-31T01:11:01.386Z,79.09
2019-03-31T01:13:34.495Z,79.42
2019-03-31T01:16:05.813Z,79.30
2019-03-31T01:18:37.401Z,79.57
2019-03-31T01:21:08.785Z,79.48
2019-03-31T01:23:40.026Z,79.62
2019-03-31T01:26:11.926Z,79.20
2019-03-31T01:28:43.233Z,79.26
2019-03-31T01:31:16.366Z,79.20
2019-03-31T01:33:47.859Z,78.76
2019-03-31T01:36:19.352Z,79.05
2019-03-31T01:38:50.665Z,79.15
2019-03-31T01:41:22.007Z,79.35
2019-03-31T01:43:56.326Z,79.18
2019-03-31T01:46:30.089Z,78.99
2019-03-31T01:49:01.501Z,78.74
2019-03-31T01:51:33.086Z,79.49
2019-03-31T01:54:07.175Z,79.44
2019-03-31T01:56:40.893Z,79.98
2019-03-31T01:59:12.036Z,80.09
2019-03-31T02:01:43.351Z,80.30
2019-03-31T02:04:14.676Z,80.31
2019-03-31T02:06:47.054Z,80.40
2019-03-31T02:09:18.394Z,80.28
2019-03-31T02:11:51.381Z,80.50
2019-03-31T02:14:26.092Z,80.48
2019-03-31T02:16:57.340Z,80.54
2019-03-31T02:19:28.811Z,80.54
2019-03-31T02:22:00.185Z,80.99
2019-03-31T02:24:32.502Z,80.70
2019-03-31T02:27:03.799Z,80.63
2019-03-31T02:29:37.147Z,80.73
2019-03-31T02:32:22.476Z,80.97
2019-03-31T02:34:41.497Z,81.02
2019-03-31T02:37:13.135Z,80.45
2019-03-31T02:39:44.492Z,80.35
2019-03-31T02:42:15.823Z,80.56
2019-03-31T02:44:47.134Z,80.55
2019-03-31T02:47:18.471Z,80.78
2019-03-31T02:49:49.840Z,80.60
2019-03-31T02:52:21.099Z,80.96
2019-03-31T02:54:52.399Z,81.48
2019-03-31T02:57:23.680Z,81.36
2019-03-31T02:59:55.041Z,81.45
2019-03-31T03:02:40.570Z,81.34
2019-03-31T03:05:16.979Z,81.48
2019-03-31T03:07:32.819Z,81.46
2019-03-31T03:10:04.613Z,81.56
2019-03-31T03:12:35.911Z,81.46
2019-03-31T03:15:07.333Z,81.58
2019-03-31T03:17:38.723Z,81.63
2019-03-31T03:20:09.978Z,81.74
2019-03-31T03:22:41.294Z,81.63
2019-03-31T03:25:12.584Z,81.62
2019-03-31T03:27:43.901Z,81.93
2019-03-31T03:30:15.232Z,82.00
2019-03-31T03:33:12.210Z,81.84
2019-03-31T03:35:19.463Z,81.52
2019-03-31T03:37:50.671Z,81.50
2019-03-31T03:40:21.927Z,81.48
2019-03-31T03:42:53.224Z,81.35
2019-03-31T03:45:24.562Z,81.19
2019-03-31T03:47:55.859Z,81.13
2019-03-31T03:50:27.166Z,81.01
2019-03-31T03:52:58.492Z,80.56
2019-03-31T03:55:31.012Z,79.76
2019-03-31T03:58:02.231Z,79.48
2019-03-31T04:00:33.537Z,79.39
2019-03-31T04:03:04.785Z,78.24
2019-03-31T04:05:36.102Z,76.75
2019-03-31T04:08:07.565Z,75.65
2019-03-31T04:10:45.206Z,75.72
2019-03-31T04:13:16.586Z,74.66
2019-03-31T04:15:49.059Z,73.70
2019-03-31T04:18:20.504Z,73.22
2019-03-31T04:20:51.839Z,71.61
2019-03-31T04:23:23.272Z,69.50
2019-03-31T04:25:54.814Z,69.52
2019-03-31T04:28:26.170Z,67.85
2019-03-31T04:30:57.523Z,67.94
2019-03-31T04:33:48.324Z,67.71
2019-03-31T04:36:02.914Z,66.51
2019-03-31T04:38:34.228Z,65.82
2019-03-31T04:41:06.969Z,66.11
2019-03-31T04:43:38.283Z,64.59
2019-03-31T04:46:09.645Z,61.89
2019-03-31T04:48:40.999Z,61.86
2019-03-31T04:51:12.304Z,60.09
2019-03-31T04:53:43.601Z,60.26
2019-03-31T04:56:14.896Z,58.85
2019-03-31T04:58:46.263Z,58.26
2019-03-31T05:01:17.574Z,57.37
2019-03-31T05:04:03.467Z,57.63
2019-03-31T05:06:23.883Z,57.25
2019-03-31T05:09:00.019Z,55.22
2019-03-31T05:11:31.417Z,54.36
2019-03-31T05:14:02.674Z,54.21
2019-03-31T05:16:33.925Z,53.31
2019-03-31T05:19:05.140Z,53.54
2019-03-31T05:21:36.450Z,51.23
2019-03-31T05:24:07.798Z,53.23
2019-03-31T05:26:40.046Z,53.50
2019-03-31T05:29:11.532Z,53.08
2019-03-31T05:31:42.783Z,51.43
2019-03-31T05:34:19.212Z,50.40
2019-03-31T05:36:47.301Z,50.40
2019-03-31T05:39:18.582Z,50.06
2019-03-31T05:41:49.820Z,49.83
2019-03-31T05:44:21.216Z,49.11
2019-03-31T05:46:53.804Z,49.56
2019-03-31T05:49:25.099Z,48.54
2019-03-31T05:51:56.521Z,48.38
2019-03-31T05:54:27.867Z,47.92
2019-03-31T05:56:59.175Z,47.77
2019-03-31T05:59:30.516Z,46.75
2019-03-31T06:02:02.872Z,47.03
2019-03-31T06:04:34.237Z,45.79
2019-03-31T06:07:05.563Z,46.46
2019-03-31T06:09:36.866Z,46.80
2019-03-31T06:12:08.266Z,46.08
2019-03-31T06:14:40.978Z,45.95
2019-03-31T06:17:12.309Z,44.51
2019-03-31T06:19:43.742Z,44.14
2019-03-31T06:22:15.126Z,43.05
2019-03-31T06:24:46.614Z,42.41
2019-03-31T06:27:17.932Z,40.57
2019-03-31T06:29:49.331Z,41.20
2019-03-31T06:32:20.936Z,41.70
2019-03-31T06:34:52.246Z,42.91
2019-03-31T06:37:23.566Z,42.22
2019-03-31T06:39:54.875Z,43.35
2019-03-31T06:42:26.566Z,43.14
2019-03-31T06:44:57.959Z,40.96
2019-03-31T06:47:29.256Z,39.92
2019-03-31T06:50:00.534Z,40.06
2019-03-31T06:52:32.840Z,42.88
2019-03-31T06:55:08.610Z,42.86
2019-03-31T06:57:40.082Z,40.74
2019-03-31T07:00:11.537Z,41.39
2019-03-31T07:02:42.895Z,41.51
2019-03-31T07:05:14.283Z,41.32
2019-03-31T07:07:45.681Z,41.52
2019-03-31T07:10:17.112Z,40.44
2019-03-31T07:12:48.477Z,40.00
2019-03-31T07:15:19.895Z,40.61
2019-03-31T07:17:51.213Z,38.85
2019-03-31T07:20:22.695Z,40.90
2019-03-31T07:22:54.037Z,40.82
2019-03-31T07:25:25.337Z,39.35
2019-03-31T07:27:56.648Z,39.86
2019-03-31T07:30:28.009Z,37.87
2019-03-31T07:32:59.365Z,39.38
2019-03-31T07:35:30.724Z,38.92
2019-03-31T07:38:02.085Z,39.30
2019-03-31T07:40:33.511Z,40.20
2019-03-31T07:43:07.057Z,37.25
2019-03-31T07:45:38.470Z,36.71
2019-03-31T07:48:12.513Z,35.99
2019-03-31T07:50:44.178Z,34.81
2019-03-31T07:53:18.740Z,36.10
2019-03-31T07:55:50.164Z,33.25
2019-03-31T07:58:21.596Z,36.09
2019-03-31T08:00:52.945Z,41.78
2019-03-31T08:03:24.531Z,41.98
2019-03-31T08:05:57.933Z,45.05
2019-03-31T08:08:29.306Z,45.65
2019-03-31T08:11:02.337Z,44.97
2019-03-31T08:13:33.665Z,45.93
2019-03-31T08:16:06.141Z,46.13
2019-03-31T08:18:38.564Z,47.44
2019-03-31T08:21:10.934Z,48.71
2019-03-31T08:23:42.408Z,47.02
2019-03-31T08:26:13.881Z,46.51
2019-03-31T08:28:45.187Z,47.45
2019-03-31T08:31:18.080Z,46.59
2019-03-31T08:33:49.507Z,48.18
2019-03-31T08:36:20.865Z,47.94
2019-03-31T08:38:52.315Z,47.70
2019-03-31T08:41:23.728Z,47.60
2019-03-31T08:43:55.087Z,48.09
2019-03-31T08:46:26.475Z,47.42
2019-03-31T08:48:57.815Z,47.79
2019-03-31T08:51:29.039Z,48.22
2019-03-31T08:54:01.466Z,48.89
2019-03-31T08:56:33.279Z,48.24
2019-03-31T08:59:04.578Z,48.38
2019-03-31T09:01:35.972Z,48.00
2019-03-31T09:04:08.224Z,47.79
2019-03-31T09:06:39.801Z,48.79
2019-03-31T09:09:16.285Z,49.39
2019-03-31T09:11:48.866Z,49.26
2019-03-31T09:14:21.976Z,49.13
2019-03-31T09:16:53.286Z,48.89
2019-03-31T09:20:09.515Z,48.14
2019-03-31T09:22:43.229Z,47.75
2019-03-31T09:25:19.382Z,48.61
2019-03-31T09:27:51.108Z,48.59
2019-03-31T09:30:22.591Z,48.89
2019-03-31T09:32:53.941Z,49.35
2019-03-31T09:35:33.318Z,49.40
2019-03-31T09:38:06.716Z,49.15
2019-03-31T09:40:44.967Z,48.90
2019-03-31T09:43:16.909Z,49.32
2019-03-31T09:45:49.864Z,49.05
2019-03-31T09:48:28.202Z,48.38
2019-03-31T09:50:59.514Z,48.39
2019-03-31T09:53:32.102Z,48.61
2019-03-31T09:56:09.317Z,49.12
2019-03-31T09:58:40.764Z,48.53
2019-03-31T10:01:12.215Z,48.66
2019-03-31T10:03:45.648Z,48.42
2019-03-31T10:06:30.947Z,48.56
2019-03-31T10:09:09.147Z,48.74
2019-03-31T10:11:43.810Z,48.38
2019-03-31T10:14:16.340Z,49.01
2019-03-31T10:16:49.015Z,47.95
2019-03-31T10:19:20.517Z,48.55
2019-03-31T10:21:51.920Z,47.33
2019-03-31T10:24:23.423Z,47.56
2019-03-31T10:26:55.115Z,47.65
2019-03-31T10:29:26.718Z,47.59
2019-03-31T10:31:58.374Z,47.64
2019-03-31T10:34:29.758Z,47.31
2019-03-31T10:37:09.336Z,46.96
2019-03-31T10:39:42.779Z,47.08
2019-03-31T10:42:20.872Z,46.79
2019-03-31T10:44:55.686Z,47.47
2019-03-31T10:47:37.131Z,45.65
2019-03-31T10:50:22.084Z,45.70
2019-03-31T10:53:03.819Z,45.55
2019-03-31T10:55:46.443Z,45.91
2019-03-31T10:58:18.392Z,45.24
2019-03-31T11:00:50.019Z,44.72
2019-03-31T11:03:21.939Z,43.39
2019-03-31T11:05:53.732Z,43.73
2019-03-31T11:08:29.700Z,43.71
2019-03-31T11:11:01.198Z,43.67
2019-03-31T11:13:33.576Z,42.54
2019-03-31T11:16:04.879Z,41.85
2019-03-31T11:18:37.591Z,41.69
2019-03-31T11:21:15.266Z,41.35
2019-03-31T11:23:46.785Z,40.61
2019-03-31T11:26:18.223Z,39.94
2019-03-31T11:28:50.528Z,40.33
2019-03-31T11:31:23.911Z,40.61
2019-03-31T11:33:55.362Z,40.29
2019-03-31T11:36:28.469Z,39.49
2019-03-31T11:38:59.842Z,39.99
2019-03-31T11:41:31.238Z,40.78
2019-03-31T11:44:06.389Z,41.46
2019-03-31T11:46:37.742Z,41.47
2019-03-31T11:49:10.137Z,41.33
2019-03-31T11:51:41.669Z,41.51
2019-03-31T11:54:13.329Z,41.49
2019-03-31T11:56:44.846Z,41.80
2019-03-31T11:59:16.288Z,41.86
2019-03-31T12:01:47.703Z,41.39
2019-03-31T12:04:19.119Z,41.42
2019-03-31T12:06:50.450Z,41.83
2019-03-31T12:09:23.571Z,41.98
2019-03-31T12:11:55.175Z,41.70
2019-03-31T12:14:26.510Z,41.70
2019-03-31T12:16:57.855Z,41.57
2019-03-31T12:19:30.934Z,41.85
2019-03-31T12:22:02.298Z,41.56
2019-03-31T12:24:33.958Z,41.80
2019-03-31T12:27:05.236Z,42.03
2019-03-31T12:29:36.551Z,41.96
2019-03-31T12:32:07.922Z,41.19
2019-03-31T12:34:40.464Z,41.40
2019-03-31T12:37:11.814Z,41.96
2019-03-31T12:39:46.965Z,41.09
2019-03-31T12:42:41.106Z,39.98
2019-03-31T12:45:43.220Z,40.32
2019-03-31T12:48:06.788Z,41.00
2019-03-31T12:50:47.626Z,40.66
2019-03-31T12:53:30.474Z,39.14
2019-03-31T12:56:09.758Z,39.96
2019-03-31T12:58:45.569Z,40.34
2019-03-31T13:01:17.254Z,40.67
2019-03-31T13:04:01.403Z,40.86
2019-03-31T13:06:38.630Z,40.83
2019-03-31T13:09:10.604Z,41.21
2019-03-31T13:11:43.670Z,41.10
2019-03-31T13:14:17.103Z,40.77
2019-03-31T13:16:48.616Z,40.79
2019-03-31T13:19:21.033Z,40.42
2019-03-31T13:21:52.725Z,39.46
2019-03-31T13:24:24.160Z,39.74
2019-03-31T13:26:58.546Z,39.94
2019-03-31T13:29:33.901Z,40.32
2019-03-31T13:32:05.323Z,40.39
2019-03-31T13:34:36.844Z,40.52
2019-03-31T13:37:08.210Z,40.62
2019-03-31T13:39:39.575Z,40.44
2019-03-31T13:42:11.177Z,40.69
2019-03-31T13:44:46.712Z,40.56
2019-03-31T13:47:18.277Z,41.17
2019-03-31T13:49:57.569Z,40.46
2019-03-31T13:52:30.535Z,40.32
2019-03-31T13:55:13.717Z,40.67
2019-03-31T13:57:57.642Z,40.76
2019-03-31T14:00:38.747Z,40.87
2019-03-31T14:03:14.554Z,40.98
2019-03-31T14:05:50.361Z,41.43
2019-03-31T14:08:31.981Z,41.41
2019-03-31T14:11:07.171Z,41.23
2019-03-31T14:13:43.999Z,41.40
2019-03-31T14:16:20.061Z,42.35
2019-03-31T14:18:52.802Z,41.67
2019-03-31T14:21:28.108Z,41.57
2019-03-31T14:23:59.971Z,41.23
2019-03-31T14:26:31.322Z,41.76
2019-03-31T14:29:07.053Z,41.03
2019-03-31T14:31:43.445Z,41.01
2019-03-31T14:34:18.927Z,40.92
2019-03-31T14:37:02.927Z,41.06
2019-03-31T14:39:47.427Z,40.76
2019-03-31T14:42:20.757Z,40.93
2019-03-31T14:44:56.352Z,42.08
2019-03-31T14:47:29.370Z,41.39
2019-03-31T14:50:08.680Z,41.50
2019-03-31T14:52:40.514Z,41.24
2019-03-31T14:55:12.863Z,41.38
2019-03-31T14:57:44.403Z,41.34
2019-03-31T15:00:15.769Z,41.52
2019-03-31T15:02:47.420Z,41.80
2019-03-31T15:05:18.978Z,41.88
2019-03-31T15:07:50.301Z,42.22
2019-03-31T15:10:21.784Z,42.48
2019-03-31T15:12:55.836Z,42.62
2019-03-31T15:15:30.746Z,42.59
2019-03-31T15:18:05.923Z,42.75
2019-03-31T15:20:37.438Z,42.96
2019-03-31T15:23:08.806Z,42.84
2019-03-31T15:25:43.027Z,43.07
2019-03-31T15:28:15.337Z,43.10
2019-03-31T15:30:47.071Z,43.08
2019-03-31T15:33:22.991Z,43.00
2019-03-31T15:35:54.433Z,43.13
2019-03-31T15:38:25.902Z,43.01
2019-03-31T15:40:57.334Z,43.31
2019-03-31T15:43:32.568Z,43.44
2019-03-31T15:46:04.024Z,43.50
2019-03-31T15:48:38.920Z,43.60
2019-03-31T15:51:13.020Z,43.85
2019-03-31T15:53:44.422Z,44.09
2019-03-31T15:56:15.769Z,44.11
2019-03-31T15:58:47.676Z,44.12
2019-03-31T16:01:19.313Z,44.31
2019-03-31T16:03:50.883Z,44.53
2019-03-31T16:06:23.784Z,44.72
2019-03-31T16:08:56.733Z,44.91
2019-03-31T16:11:28.095Z,45.21
2019-03-31T16:13:59.341Z,45.38
2019-03-31T16:16:31.034Z,45.68
2019-03-31T16:19:03.486Z,46.03
2019-03-31T16:21:37.855Z,47.05
2019-03-31T16:24:09.240Z,48.01
2019-03-31T16:26:42.152Z,48.44
2019-03-31T16:29:15.534Z,49.12
2019-03-31T16:31:46.879Z,49.62
2019-03-31T16:34:18.303Z,50.11
2019-03-31T16:36:49.956Z,50.82
2019-03-31T16:39:21.264Z,51.14
2019-03-31T16:41:53.563Z,51.58
2019-03-31T16:44:25.922Z,51.81
2019-03-31T16:46:57.279Z,51.44
2019-03-31T16:49:28.649Z,50.01
2019-03-31T16:52:00.037Z,47.70
2019-03-31T16:54:31.474Z,46.84
2019-03-31T16:57:02.924Z,46.79
2019-03-31T16:59:35.058Z,46.20
2019-03-31T17:02:06.409Z,45.49
2019-03-31T17:04:37.780Z,46.32
2019-03-31T17:07:09.148Z,46.55
2019-03-31T17:09:50.859Z,47.13
2019-03-31T17:12:13.482Z,46.61
2019-03-31T17:14:45.853Z,46.06
2019-03-31T17:17:17.161Z,45.91
2019-03-31T17:19:49.825Z,45.52
2019-03-31T17:22:21.224Z,45.78
2019-03-31T17:24:52.679Z,45.68
2019-03-31T17:27:23.986Z,45.77
2019-03-31T17:29:55.335Z,46.14
2019-03-31T17:32:26.722Z,45.52
2019-03-31T17:34:58.053Z,45.62
2019-03-31T17:37:29.455Z,46.01
2019-03-31T17:40:06.549Z,46.01
2019-03-31T17:42:33.859Z,45.98
2019-03-31T17:45:06.715Z,45.87
2019-03-31T17:47:38.047Z,45.83
2019-03-31T17:50:09.363Z,45.99
2019-03-31T17:52:41.725Z,46.07
2019-03-31T17:55:13.027Z,45.88
2019-03-31T17:57:44.440Z,46.07
2019-03-31T18:00:15.663Z,46.21
2019-03-31T18:02:46.915Z,46.25
2019-03-31T18:05:18.362Z,46.19
2019-03-31T18:07:49.691Z,46.17
2019-03-31T18:10:21.551Z,46.24
2019-03-31T18:12:53.009Z,46.29
2019-03-31T18:15:24.406Z,46.41
2019-03-31T18:17:55.715Z,46.52
2019-03-31T18:20:28.013Z,46.45
2019-03-31T18:23:01.232Z,46.76
2019-03-31T18:25:34.214Z,46.83
2019-03-31T18:28:05.490Z,46.63
2019-03-31T18:30:36.856Z,46.52
2019-03-31T18:33:08.207Z,46.54
2019-03-31T18:35:39.526Z,46.52
2019-03-31T18:38:10.881Z,46.43
2019-03-31T18:40:42.180Z,46.39
2019-03-31T18:43:13.475Z,46.82
2019-03-31T18:45:47.567Z,47.13
2019-03-31T18:48:19.024Z,47.52
2019-03-31T18:50:50.379Z,47.44
2019-03-31T18:53:23.305Z,47.35
2019-03-31T18:56:02.339Z,47.36
2019-03-31T18:58:35.344Z,47.53
2019-03-31T19:01:14.256Z,47.40
2019-03-31T19:03:53.399Z,47.44
2019-03-31T19:06:35.266Z,47.52
2019-03-31T19:09:13.461Z,47.60
2019-03-31T19:12:01.946Z,47.55
2019-03-31T19:14:34.841Z,47.49
2019-03-31T19:17:13.610Z,47.40
2019-03-31T19:20:04.807Z,47.63
2019-03-31T19:22:37.724Z,47.74
2019-03-31T19:25:26.892Z,47.63
2019-03-31T19:28:16.147Z,47.51
2019-03-31T19:31:05.433Z,47.08
2019-03-31T19:33:44.405Z,47.25
2019-03-31T19:36:26.644Z,47.19
2019-03-31T19:39:16.753Z,47.19
2019-03-31T19:41:58.476Z,46.86
2019-03-31T19:44:40.400Z,46.96
2019-03-31T19:47:31.796Z,47.00
2019-03-31T19:50:07.445Z,46.75
2019-03-31T19:52:40.324Z,46.91
2019-03-31T19:55:19.222Z,46.90
2019-03-31T19:58:08.282Z,47.16
2019-03-31T20:00:41.091Z,47.59
2019-03-31T20:03:13.876Z,47.45
2019-03-31T20:06:02.246Z,47.25
2019-03-31T20:08:38.255Z,47.27
2019-03-31T20:11:11.197Z,47.30
2019-03-31T20:14:02.415Z,47.08
2019-03-31T20:16:38.029Z,47.38
2019-03-31T20:19:16.917Z,47.40
2019-03-31T20:21:49.817Z,47.66
2019-03-31T20:24:22.751Z,47.60
2019-03-31T20:26:58.542Z,47.68
2019-03-31T20:29:31.407Z,49.93
2019-03-31T20:32:20.645Z,53.48
2019-03-31T20:34:56.469Z,55.84
2019-03-31T20:37:35.296Z,57.64
2019-03-31T20:40:11.493Z,58.40
2019-03-31T20:43:02.761Z,59.80
2019-03-31T20:45:34.098Z,61.17
2019-03-31T20:48:05.426Z,62.18
2019-03-31T20:50:36.754Z,63.00
2019-03-31T20:53:08.098Z,62.95
2019-03-31T20:55:39.466Z,63.10
2019-03-31T20:58:10.786Z,63.03
2019-03-31T21:00:42.097Z,64.04
2019-03-31T21:03:14.460Z,64.67
2019-03-31T21:05:45.761Z,64.59
2019-03-31T21:08:17.284Z,64.65
2019-03-31T21:10:48.617Z,64.79
2019-03-31T21:13:19.987Z,65.17
2019-03-31T21:15:51.353Z,66.16
2019-03-31T21:18:22.670Z,66.24
2019-03-31T21:20:53.979Z,66.24
2019-03-31T21:23:25.265Z,66.75
2019-03-31T21:25:57.621Z,66.54
2019-03-31T21:28:28.903Z,66.52
2019-03-31T21:31:04.009Z,66.45
2019-03-31T21:33:35.305Z,66.47
2019-03-31T21:36:06.661Z,66.49
2019-03-31T21:38:37.952Z,66.98
2019-03-31T21:41:13.917Z,56.81
2019-03-31T21:43:43.257Z,56.81
2019-03-31T21:46:14.622Z,51.80
2019-03-31T21:48:45.913Z,50.19
2019-03-31T21:51:18.297Z,50.04
2019-03-31T21:53:49.596Z,50.53
2019-03-31T21:56:20.906Z,50.06
2019-03-31T21:58:53.192Z,50.87
2019-03-31T22:01:24.446Z,50.94
2019-03-31T22:03:55.693Z,51.46
2019-03-31T22:06:26.990Z,51.64
2019-03-31T22:08:58.403Z,52.28
2019-03-31T22:11:29.721Z,51.93
2019-03-31T22:14:01.160Z,52.04
2019-03-31T22:16:32.486Z,52.23
2019-03-31T22:19:03.794Z,52.86
2019-03-31T22:21:35.434Z,53.35
2019-03-31T22:24:06.742Z,53.62
2019-03-31T22:26:40.201Z,54.00
2019-03-31T22:29:11.567Z,54.80
2019-03-31T22:31:44.009Z,55.05
2019-03-31T22:34:15.399Z,55.68
2019-03-31T22:36:46.717Z,55.70
2019-03-31T22:39:18.130Z,55.92
2019-03-31T22:41:49.437Z,56.22
2019-03-31T22:44:20.766Z,56.63
2019-03-31T22:46:54.495Z,57.21
2019-03-31T22:49:26.052Z,57.39
2019-03-31T22:51:57.408Z,57.63
2019-03-31T22:54:28.669Z,57.84
2019-03-31T22:57:00.024Z,57.86
2019-03-31T22:59:31.342Z,57.94
2019-03-31T23:02:02.677Z,57.87
2019-03-31T23:04:35.072Z,58.41
2019-03-31T23:07:06.383Z,58.16
2019-03-31T23:09:37.684Z,58.41
2019-03-31T23:12:09.031Z,58.33
2019-03-31T23:14:40.337Z,58.73
2019-03-31T23:17:11.561Z,58.84
2019-03-31T23:19:42.884Z,59.03
2019-03-31T23:22:14.210Z,58.99
2019-03-31T23:24:45.463Z,59.09
2019-03-31T23:27:16.808Z,59.44
2019-03-31T23:29:50.122Z,59.76
2019-03-31T23:32:23.009Z,60.11
2019-03-31T23:34:54.443Z,60.31
2019-03-31T23:37:25.769Z,60.72
2019-03-31T23:39:58.177Z,60.61
2019-03-31T23:42:29.408Z,61.00
2019-03-31T23:45:00.701Z,61.25
2019-03-31T23:47:32.003Z,60.90
2019-03-31T23:50:04.318Z,61.44
2019-03-31T23:52:35.628Z,61.69
2019-03-31T23:55:06.936Z,61.78
2019-03-31T23:57:44.030Z,61.60
